Flight Track Log - Related Links

Times and Time Zones

All times are in EDT time to prevent confusion due to time zone crossing. See the TRS265 flight status page for this flight to view local times or setup timezone preferences in your user account.

Time Position Orientation Groundspeed Altitude Reporting Facility
EDT Latitude Longitude Course Direction KTS MPH feet Rate Location/Type
Wed 03:12:51 PM 33.6286 -84.4928 48° Northeast 450 518 2,600  Level Atlanta Center
Wed 03:13:51 PM 33.5989 -84.5650 244° Southwest 338 389 4,300 1,950 Climbing Atlanta Center
Wed 03:14:51 PM 33.5300 -84.5869 195° South 259 298 6,500 2,000 Climbing Atlanta Center
Wed 03:15:51 PM 33.4653 -84.5692 167° South 300 345 8,300 2,000 Climbing Atlanta Center
Wed 03:16:51 PM 33.4533 -84.4669 98° East 319 367 10,500 2,200 Climbing Atlanta Center
Wed 03:17:51 PM 33.4556 -84.3600 89° East 325 374 12,700 2,150 Climbing Atlanta Center
Wed 03:18:00 PM 33.9033 -83.7345 48° Northeast  Level FlightAware Approximate
Wed 03:18:51 PM 33.4831 -84.2606 72° East 325 374 14,800  Level Atlanta Center
Wed 03:19:51 PM 33.5603 -84.2083 29° Northeast 288 331 16,900 1,900 Climbing Atlanta Center
Wed 03:20:51 PM 33.6481 -84.1536 27° Northeast 321 369 18,600 1,950 Climbing Atlanta Center
Wed 03:21:51 PM 33.7294 -84.0914 32° Northeast 342 394 20,800 1,900 Climbing Atlanta Center
Wed 03:22:51 PM 33.7881 -83.9889 55° Northeast 352 405 22,400 1,650 Climbing Atlanta Center
Wed 03:23:51 PM 33.8442 -83.8761 59° Northeast 379 436 24,100 1,700 Climbing Atlanta Center
Wed 03:24:51 PM 33.9044 -83.7608 58° Northeast 397 457 25,800 1,750 Climbing Atlanta Center
Wed 03:25:51 PM 33.9689 -83.6531 54° Northeast 397 457 27,600 1,350 Climbing Atlanta Center
Wed 03:26:51 PM 34.0417 -83.5350 53° Northeast 402 463 28,500 800 Climbing Atlanta Center
Wed 03:27:51 PM 34.1142 -83.4217 52° Northeast 415 478 29,200 850 Climbing Atlanta Center
Wed 03:28:51 PM 34.1867 -83.3056 53° Northeast 429 494 30,200 1,000 Climbing Atlanta Center
Wed 03:29:51 PM 34.2608 -83.1842 54° Northeast 434 499 31,200 900 Climbing Atlanta Center
Wed 03:30:51 PM 34.3350 -83.0628 53° Northeast 434 499 32,000 850 Climbing Atlanta Center
Wed 03:31:51 PM 34.4114 -82.9436 52° Northeast 440 506 32,900 500 Climbing Atlanta Center
Wed 03:32:51 PM 34.4831 -82.8192 55° Northeast 452 520 33,000 50 Climbing Atlanta Center
Wed 03:33:51 PM 34.5569 -82.6944 54° Northeast 452 520 33,000  Level Atlanta Center
Wed 03:34:51 PM 34.6267 -82.5897 51° Northeast 447 514 33,000  Level Atlanta Center
Wed 03:35:51 PM 34.7025 -82.4722 52° Northeast 442 509 33,000  Level Atlanta Center
Wed 03:36:51 PM 34.7781 -82.3494 53° Northeast 442 509 33,000  Level Atlanta Center
Wed 03:37:51 PM 34.8536 -82.2289 53° Northeast 442 509 33,000  Level Atlanta Center
Wed 03:38:51 PM 34.9350 -82.0981 53° Northeast 442 509 33,000  Level Atlanta Center
Wed 03:39:51 PM 35.0083 -81.9744 54° Northeast 442 509 33,000  Level Atlanta Center
Wed 03:40:51 PM 35.0789 -81.8458 56° Northeast 442 509 33,000  Level Atlanta Center
Wed 03:41:51 PM 35.1456 -81.7172 58° Northeast 447 514 33,000  Level Atlanta Center
Wed 03:42:51 PM 35.2139 -81.5881 57° Northeast 447 514 33,000  Level Atlanta Center
Wed 03:43:51 PM 35.2822 -81.4589 57° Northeast 447 514 33,000  Level Atlanta Center
Wed 03:45:51 PM 35.4183 -81.1972 57° Northeast 447 514 33,000  Level Atlanta Center
Wed 03:46:51 PM 35.4839 -81.0622 59° Northeast 453 521 33,000  Level Atlanta Center
Wed 03:47:51 PM 35.5558 -80.9294 56° Northeast 459 528 33,000  Level Atlanta Center
Wed 03:48:51 PM 35.6175 -80.8122 57° Northeast 459 528 33,000  Level Atlanta Center
Wed 03:49:51 PM 35.6847 -80.6817 58° Northeast 454 522 33,000  Level Atlanta Center
Wed 03:50:51 PM 35.7542 -80.5483 57° Northeast 454 522 33,000  Level Atlanta Center
Wed 03:52:51 PM 35.8978 -80.2664 58° Northeast 490 564 33,000  Level Washington Center
Wed 03:53:52 PM 35.9656 -80.1344 58° Northeast 473 544 33,000  Level Washington Center
Wed 03:54:52 PM 36.0261 -80.0172 57° Northeast 454 522 33,000  Level Washington Center
Wed 03:55:52 PM 36.0978 -79.8850 56° Northeast 454 522 33,000  Level Washington Center
Wed 03:56:50 PM 36.1736 -79.7503 55° Northeast 462 532 33,000  Level Washington Center
Wed 03:57:51 PM 36.2558 -79.6053 55° Northeast 467 537 33,000  Level Washington Center
Wed 03:58:52 PM 36.3222 -79.4872 55° Northeast 467 537 33,000  Level Washington Center
Wed 03:59:52 PM 36.3953 -79.3567 55° Northeast 467 537 33,000  Level Washington Center
Wed 04:00:53 PM 36.4769 -79.2108 55° Northeast 467 537 33,000  Level Washington Center
Wed 04:01:50 PM 36.5428 -79.0975 54° Northeast 462 532 33,000  Level Washington Center
Wed 04:02:51 PM 36.6156 -78.9689 55° Northeast 462 532 33,000  Level Washington Center
Wed 04:03:51 PM 36.6858 -78.8347 57° Northeast 462 532 33,000  Level Washington Center
Wed 04:04:52 PM 36.7583 -78.7056 55° Northeast 457 526 33,000  Level Washington Center
Wed 04:05:52 PM 36.8283 -78.5761 56° Northeast 450 518 33,000  Level Washington Center
Wed 04:06:50 PM 36.9047 -78.4386 55° Northeast 445 512 33,000  Level Washington Center
Wed 04:07:51 PM 36.9767 -78.3036 56° Northeast 445 512 33,000  Level Washington Center
Wed 04:08:52 PM 37.0461 -78.1783 55° Northeast 450 518 33,000  Level Washington Center
Wed 04:09:53 PM 37.1136 -78.0506 56° Northeast 445 512 33,000  Level Washington Center
Wed 04:10:50 PM 37.1828 -77.9225 56° Northeast 445 512 33,000  Level Washington Center
Wed 04:11:52 PM 37.2542 -77.7914 56° Northeast 445 512 33,000  Level Washington Center
Wed 04:12:52 PM 37.3233 -77.6603 56° Northeast 445 512 33,000  Level Washington Center
Wed 04:13:50 PM 37.3922 -77.5289 57° Northeast 445 512 33,000  Level Washington Center
Wed 04:14:51 PM 37.4631 -77.3972 56° Northeast 445 512 33,000  Level Washington Center
Wed 04:15:52 PM 37.5439 -77.2811 49° Northeast 445 512 33,000  Level Washington Center
Wed 04:16:52 PM 37.6369 -77.1864 39° Northeast 428 493 33,000  Level Washington Center
Wed 04:17:50 PM 37.7258 -77.0936 40° Northeast 418 481 33,000  Level Washington Center
Wed 04:18:51 PM 37.8208 -77.0008 38° Northeast 418 481 33,000  Level Washington Center
Wed 04:19:52 PM 37.9136 -76.9106 38° Northeast 423 487 33,000  Level Washington Center
Wed 04:20:50 PM 38.0083 -76.8197 37° Northeast 423 487 33,000  Level Washington Center
Wed 04:21:51 PM 38.1011 -76.7292 38° Northeast 423 487 33,000  Level Washington Center
Wed 04:22:52 PM 38.1936 -76.6406 37° Northeast 423 487 33,000  Level Washington Center
Wed 04:23:51 PM 38.2861 -76.5492 38° Northeast 418 481 33,000  Level Washington Center
Wed 04:24:51 PM 38.3764 -76.4631 37° Northeast 418 481 33,000  Level Washington Center
Wed 04:25:52 PM 38.4689 -76.3714 38° Northeast 418 481 33,000  Level Washington Center
Wed 04:26:52 PM 38.5569 -76.2819 38° Northeast 413 475 33,000  Level Washington Center
Wed 04:27:53 PM 38.6469 -76.1925 38° Northeast 413 475 33,000 -51 Level Washington Center
Wed 04:28:50 PM 38.7331 -76.1106 37° Northeast 418 481 32,900  Descending Washington Center
Wed 04:29:50 PM 38.8250 -76.0181 38° Northeast 418 481 33,000 50 Climbing Washington Center
Wed 04:30:51 PM 38.9150 -75.9278 38° Northeast 413 475 33,000  Level Washington Center
Wed 04:31:51 PM 39.0089 -75.8347 38° Northeast 413 475 33,000 -50 Level Washington Center
Wed 04:32:52 PM 39.0986 -75.7442 38° Northeast 413 475 32,900  Descending Washington Center
Wed 04:33:50 PM 39.1906 -75.6533 37° Northeast 413 475 33,000 36 Climbing Washington Center
Wed 04:35:38 PM 39.3583 -75.4833 38° Northeast 425 489 33,000  Level New York Center
Wed 04:36:38 PM 39.4475 -75.3925 38° Northeast 425 489 33,000  Level New York Center
Wed 04:37:38 PM 39.5367 -75.2986 39° Northeast 415 478 33,000  Level New York Center
Wed 04:38:38 PM 39.6256 -75.2100 38° Northeast 409 471 33,000  Level New York Center
Wed 04:39:38 PM 39.7256 -75.1003 40° Northeast 419 482 33,000  Level New York Center
Wed 04:40:38 PM 39.8164 -75.0086 38° Northeast 419 482 33,000  Level New York Center
Wed 04:41:38 PM 39.9094 -74.9114 39° Northeast 419 482 33,000  Level New York Center
Wed 04:42:38 PM 39.9822 -74.8019 49° Northeast 419 482 33,000  Level New York Center
Wed 04:43:38 PM 40.0614 -74.6792 50° Northeast 433 498 33,000  Level New York Center
Wed 04:44:38 PM 40.1383 -74.5531 51° Northeast 438 504 33,000  Level New York Center
Wed 04:45:38 PM 40.2281 -74.4167 49° Northeast 444 511 33,000 -600 Level New York Center
Wed 04:46:38 PM 40.3111 -74.2931 49° Northeast 444 511 31,800 -1,535 Descending New York Center
Wed 04:48:30 PM 40.4444 -74.0881 49° Northeast 426 490 28,600 -1,674 Descending Boston Center
Wed 04:49:30 PM 40.5281 -73.9608 49° Northeast 420 483 27,000 -774 Descending Boston Center
Wed 04:50:34 PM 40.6019 -73.8444 50° Northeast 417 480 27,000  Level Boston Center
Wed 04:51:35 PM 40.6781 -73.7297 49° Northeast 417 480 27,000  Level Boston Center
Wed 04:52:35 PM 40.7517 -73.6119 50° Northeast 416 479 27,000  Level Boston Center
Wed 04:53:35 PM 40.8264 -73.4939 50° Northeast 418 481 27,000 -435 Level Boston Center
Wed 04:54:39 PM 40.9014 -73.3778 49° Northeast 417 480 26,100 -968 Descending Boston Center
Wed 04:55:39 PM 40.9872 -73.2528 48° Northeast 412 474 25,000 -1,041 Descending Boston Center
Wed 04:56:40 PM 41.0600 -73.1447 48° Northeast 398 458 24,000 -968 Descending Boston Center
Wed 04:57:43 PM 41.1306 -73.0369 49° Northeast 394 453 23,000 -488 Descending Boston Center
Wed 04:58:43 PM 41.1814 -72.9056 63° Northeast 402 463 23,000  Level Boston Center
Wed 04:59:45 PM 41.2317 -72.7728 63° Northeast 403 464 23,000  Level Boston Center
Wed 05:00:45 PM 41.2889 -72.6194 64° Northeast 403 464 23,000  Level Boston Center
Wed 05:01:46 PM 41.3400 -72.4836 63° Northeast 404 465 23,000  Level Boston Center
Wed 05:02:50 PM 41.3889 -72.3486 64° Northeast 405 466 23,000 -629 Level Boston Center
Wed 05:03:50 PM 41.4389 -72.2133 64° Northeast 405 466 21,700 -1,438 Descending Boston Center
Wed 05:04:51 PM 41.4867 -72.0850 64° Northeast 390 449 20,100 -1,636 Descending Boston Center
Wed 05:05:51 PM 41.5361 -71.9525 63° Northeast 372 428 18,400 -1,548 Descending Boston Center
Wed 05:06:55 PM 41.5792 -71.8336 64° Northeast 360 414 16,900 -1,694 Descending Boston Center
Wed 05:07:55 PM 41.6236 -71.7106 64° Northeast 367 422 14,900 -1,951 Descending Boston Center
Wed 05:08:58 PM 41.6711 -71.5808 64° Northeast 367 422 12,900 -1,805 Descending Boston Center
Wed 05:09:58 PM 41.7214 -71.4781 57° Northeast 342 394 11,200 -950 Descending Boston Center
Wed 05:10:58 PM 41.7939 -71.4069 36° Northeast 306 352 11,000 -99 Descending Boston Center
Wed 05:11:59 PM 41.8625 -71.3603 27° Northeast 280 322 11,000 -484 Level Boston Center
Wed 05:13:02 PM 41.9292 -71.3131 28° Northeast 276 318 10,000 -1,119 Descending Boston Center
Wed 05:14:56 PM 42.0500 -71.2333 26° Northeast 238 274 7,700 -1,233 Descending KA90
Wed 05:16:02 PM 42.1167 -71.2000 20° North 229 264 6,300 -1,344 Descending KA90
Wed 05:17:01 PM 42.1667 -71.1833 14° North 184 212 4,900 -1,500 Descending KA90
Wed 05:18:02 PM 42.2167 -71.1500 26° Northeast 186 214 3,300 -1,140 Descending KA90
Wed 05:19:02 PM 42.2500 -71.1000 48° Northeast 183 211 2,600 -750 Descending KA90
Wed 05:20:02 PM 42.2833 -71.0500 48° Northeast 183 211 1,800 -950 Descending KA90
Wed 05:21:02 PM 42.3333 -71.0333 14° North 152 175 700 -1,100 Descending KA90
Wed 05:23:00 PM 42.3500 -71.0000 North  Level FlightAware Approximate
Wed 05:30:00 PM 42.3630 -71.0064 North  Level Estimated

Login

Don't have an account? Register now (free) for customized features, flight alerts, and more!